Chicago, Illinois
Traffic Map
Current Weather Conditions
Chicago, Illinois
Few Clouds
Few Clouds
45°
Feels Like: 38°
Wind Chill: 38° Ceiling: Unl
Heat Index: 45° Visibility: 10mi
Dew Point: 21° Wind: 15mph
Humidity: 39% Direction: 250° (WSW)
Pressure: 30.3in Gusts: 0mph
Raw Report DataKMDW 211753Z 25013KT 10SM FEW035 FEW120 07/M06 A3030 RMK AO2 SLP268 T00721061 10072 21022 58023
Traffic Incident Summary
Active as of:
Severity:
Category:
InformationThere was an issue retrieving the traffic information for this location. Please try a different location or try again shortly.
Advertisements